Latest Weather Observations for Hobart

IDT60901

Issued at 1:15 pm EDT Sunday 23 November 2014 (issued every 10 minutes, with the page automatically refreshed every 10 minutes)

About weather observations | Map of Hobart area stations | Latest observations for Hobart area | Other Formats
Station Details ID: 094029 Name: HOBART (ELLERSLIE ROAD) Lat: -42.89 Lon: 147.33 Height: 50.5 m
Data from the previous 72 hours. | See also: Recent months at Hobart
Date/Time
EDT
Tmp

°C
App
Tmp
°C
Dew
Point
°C
Rel
Hum
%
Delta-T

°C
Wind Press
QNH
hPa
Press
MSL
hPa
Rain
since
9 am
mm
Dir
 
Spd
km/h
Gust
km/h
Spd
kts
Gust
kts
23/01:00pm 23.3 17.1 2.0 24 10.1 NNW 24 37 13 20 1007.9 1007.9 0.0
23/12:30pm 22.2 16.3 2.0 26 9.5 N 22 30 12 16 1008.1 1008.1 0.0
23/12:00pm 22.4 15.0 2.0 26 9.6 NNW 30 43 16 23 1008.2 1008.2 0.0
23/11:30am 21.7 15.2 2.4 28 9.1 NW 26 37 14 20 1008.1 1008.1 0.0
23/11:00am 21.9 16.5 4.7 32 8.5 NW 22 35 12 19 1008.1 1008.1 0.0
23/10:30am 20.2 14.2 3.1 32 8.1 NNW 24 35 13 19 1008.2 1008.2 0.0
23/10:00am 19.6 14.0 3.3 34 7.7 NW 22 33 12 18 1008.0 1008.0 0.0
23/09:30am 19.2 11.6 3.0 34 7.6 NW 32 43 17 23 1007.9 1007.9 0.0
23/09:00am 18.5 11.8 3.7 37 7.0 NW 28 43 15 23 1007.7 1007.7 0.2
23/08:30am 17.7 11.4 3.6 39 6.6 NW 26 41 14 22 1007.5 1007.5 0.0
23/08:00am 17.6 12.1 4.1 40 6.4 NW 22 39 12 21 1007.2 1007.2 0.0
23/07:30am 17.0 11.9 4.0 42 6.1 NW 20 35 11 19 1006.8 1006.8 0.0
23/07:00am 16.4 11.4 3.7 42 5.9 NW 19 32 10 17 1006.4 1006.4 0.0
23/06:30am 16.2 12.9 4.3 45 5.6 WNW 11 24 6 13 1006.1 1006.1 0.0
23/06:00am 15.1 13.1 7.2 59 3.9 W 7 17 4 9 1005.5 1005.5 0.0
23/05:30am 13.6 12.1 9.3 75 2.2 ENE 7 9 4 5 1004.9 1004.9 0.0
23/05:00am 13.2 12.0 10.3 82 1.5 W 7 9 4 5 1004.5 1004.5 0.0
23/04:30am 13.1 12.2 10.8 86 1.2 SSE 6 11 3 6 1004.1 1004.1 0.0
23/04:00am 12.7 11.5 10.4 86 1.2 W 7 13 4 7 1003.9 1003.9 0.0
23/03:30am 12.8 11.7 10.7 87 1.1 SW 7 13 4 7 1003.7 1003.7 0.0
23/03:00am 12.6 11.5 10.5 87 1.1 W 7 11 4 6 1003.8 1003.8 0.0
23/02:30am 13.4 12.3 10.7 84 1.4 WSW 7 11 4 6 1003.8 1003.8 0.0
23/02:00am 13.5 12.9 10.4 81 1.6 ESE 4 9 2 5 1003.5 1003.5 0.0
23/01:30am 13.3 13.2 10.8 85 1.3 W 2 7 1 4 1003.4 1003.4 0.0
23/01:00am 13.3 12.4 10.8 85 1.3 NW 6 9 3 5 1003.2 1003.2 0.0
23/12:30am 13.5 12.5 11.1 85 1.3 W 7 11 4 6 1003.4 1003.4 0.0
23/12:00am 13.9 13.2 11.5 85 1.3 W 6 9 3 5 1003.5 1003.5 0.0
 
Date/Time
EDT
Tmp

°C
App
Tmp
°C
Dew
Point
°C
Rel
Hum
%
Delta-T

°C
Wind Press
QNH
hPa
Press
MSL
hPa
Rain
since
9 am
mm
Dir
 
Spd
km/h
Gust
km/h
Spd
kts
Gust
kts
22/11:30pm 14.9 13.3 11.4 79 1.9 WSW 11 15 6 8 1003.5 1003.5 0.0
22/11:00pm 15.5 14.2 11.4 76 2.2 SW 9 15 5 8 1003.7 1003.7 0.0
22/10:30pm 15.5 14.4 12.0 79 1.9 WSW 9 13 5 7 1003.9 1003.9 0.0
22/10:00pm 15.8 14.8 12.2 79 2.0 WSW 9 15 5 8 1003.9 1003.9 0.0
22/09:30pm 16.4 15.6 11.6 73 2.6 ESE 7 9 4 5 1004.0 1004.0 0.0
22/09:00pm 16.6 14.6 11.5 72 2.8 ESE 13 20 7 11 1003.9 1003.9 0.0
22/08:30pm 16.9 15.7 11.6 71 2.9 E 9 19 5 10 1003.8 1003.8 0.0
22/08:00pm 17.1 16.7 13.0 77 2.3 SE 7 13 4 7 1003.8 1003.8 0.0
22/07:30pm 17.4 16.4 12.4 72 2.8 SSE 9 15 5 8 1003.6 1003.6 0.0
22/07:00pm 17.6 18.0 12.6 72 2.8 ENE 2 9 1 5 1003.6 1003.6 0.0
22/06:30pm 17.7 17.1 11.7 68 3.3 ENE 6 9 3 5 1003.4 1003.4 0.0
22/06:00pm 17.4 14.3 12.2 71 2.9 ESE 20 24 11 13 1002.9 1002.9 0.0
22/05:30pm 21.7 20.2 10.4 48 6.2 W 9 15 5 8 1003.0 1003.0 0.0
22/05:00pm 20.6 16.9 10.1 51 5.7 WSW 20 28 11 15 1003.3 1003.3 0.0
22/04:30pm 21.3 17.6 10.3 49 6.0 W 20 33 11 18 1003.2 1003.2 0.0
22/04:00pm 22.5 19.7 8.4 40 7.5 WNW 13 20 7 11 1003.4 1003.4 0.0
22/03:30pm 22.7 19.3 7.7 38 7.9 WNW 15 24 8 13 1003.2 1003.2 0.0
22/03:00pm 22.7 19.0 7.9 38 7.8 WNW 17 26 9 14 1003.4 1003.4 0.0
22/02:30pm 23.4 18.7 7.9 37 8.2 WNW 22 33 12 18 1004.0 1004.0 0.0
22/02:00pm 23.1 17.8 8.3 38 7.9 WNW 26 35 14 19 1004.4 1004.4 0.0
22/01:30pm 23.3 18.5 8.8 39 7.8 NW 24 30 13 16 1004.7 1004.7 0.0
22/01:11pm 22.2 16.5 8.2 40 7.4 NW 28 50 15 27 1004.9 1004.9 0.0
22/01:00pm 22.5 17.5 8.1 39 7.6 NW 24 41 13 22 1005.0 1005.0 0.0
22/12:30pm 23.2 17.4 8.1 38 8.0 NW 28 43 15 23 1005.1 1005.1 0.0
22/12:00pm 21.3 16.5 7.4 40 7.2 NW 22 35 12 19 1005.5 1005.5 0.0
22/11:30am 20.3 13.4 6.5 40 7.0 NNW 32 54 17 29 1005.3 1005.3 0.0
22/11:00am 19.1 12.0 5.5 41 6.7 NW 32 57 17 31 1005.2 1005.2 0.0
22/10:47am 18.9 12.6 5.5 41 6.6 NNW 28 46 15 25 1005.3 1005.3 0.0
22/10:30am 17.8 12.0 4.4 41 6.4 NNW 24 37 13 20 1005.7 1005.7 0.0
22/10:03am 17.0 10.2 3.2 39 6.4 N 28 46 15 25 1005.7 1005.7 0.0
22/10:00am 16.9 10.9 3.3 40 6.3 N 24 43 13 23 1005.8 1005.8 0.0
22/09:30am 14.9 9.2 2.7 44 5.5 NNW 22 33 12 18 1006.6 1006.6 0.0
22/09:00am 12.7 7.8 4.1 56 3.9 NNW 19 24 10 13 1007.2 1007.2 0.4
22/08:30am 11.8 7.3 4.3 60 3.4 NNW 17 24 9 13 1007.4 1007.4 0.4
22/08:00am 11.2 6.1 4.3 62 3.1 NW 20 28 11 15 1007.4 1007.4 0.4
22/07:30am 11.1 5.9 3.7 60 3.3 NW 20 33 11 18 1007.0 1007.0 0.4
22/07:00am 10.4 4.6 4.4 66 2.7 NW 24 35 13 19 1006.7 1006.7 0.4
22/06:30am 10.2 5.2 4.7 68 2.5 NW 20 35 11 19 1006.7 1006.7 0.4
22/06:00am 10.0 5.6 4.9 70 2.3 NW 17 28 9 15 1006.6 1006.6 0.4
22/05:30am 9.7 3.9 4.6 70 2.3 NNW 24 37 13 20 1006.2 1006.2 0.4
22/05:00am 9.7 3.7 5.1 73 2.1 NNW 26 35 14 19 1006.2 1006.2 0.4
22/04:30am 9.6 3.3 5.7 76 1.8 NNW 28 39 15 21 1006.0 1006.0 0.4
22/04:00am 9.3 4.3 6.3 81 1.4 NNW 22 33 12 18 1006.5 1006.5 0.4
22/03:30am 9.4 5.0 6.6 83 1.3 NNW 19 30 10 16 1006.7 1006.7 0.4
22/03:00am 9.5 7.0 6.7 83 1.3 NW 9 17 5 9 1007.2 1007.2 0.4
22/02:30am 9.9 5.5 6.7 80 1.5 NNW 19 28 10 15 1007.3 1007.3 0.4
22/02:00am 10.0 5.5 6.8 80 1.5 NNW 20 28 11 15 1007.8 1007.8 0.4
22/01:30am 10.0 4.8 7.1 82 1.4 NNW 24 32 13 17 1008.0 1008.0 0.4
22/01:00am 10.0 5.7 7.1 82 1.4 NNW 19 26 10 14 1008.8 1008.8 0.4
22/12:30am 10.0 8.2 7.3 83 1.3 NNE 6 15 3 8 1009.3 1009.3 0.4
22/12:00am 10.2 7.8 6.8 79 1.6 N 9 13 5 7 1009.6 1009.6 0.4
 
Date/Time
EDT
Tmp

°C
App
Tmp
°C
Dew
Point
°C
Rel
Hum
%
Delta-T

°C
Wind Press
QNH
hPa
Press
MSL
hPa
Rain
since
9 am
mm
Dir
 
Spd
km/h
Gust
km/h
Spd
kts
Gust
kts
21/11:30pm 10.9 8.8 6.7 75 2.0 NNE 7 13 4 7 1010.1 1010.1 0.4
21/11:00pm 10.0 8.9 6.8 80 1.5 NW 2 9 1 5 1010.5 1010.4 0.4
21/10:30pm 10.2 8.7 7.0 80 1.5 WNW 4 6 2 3 1010.7 1010.6 0.4
21/10:00pm 10.1 8.1 7.2 82 1.4 W 7 9 4 5 1010.8 1010.7 0.4
21/09:30pm 10.6 8.6 7.3 80 1.6 SW 7 9 4 5 1010.4 1010.3 0.4
21/09:00pm 11.4 9.9 7.0 74 2.1 SSE 4 7 2 4 1010.0 1010.0 0.4
21/08:30pm 12.0 8.7 6.3 68 2.7 ESE 13 17 7 9 1009.7 1009.7 0.4
21/08:00pm 12.3 9.1 6.9 69 2.6 ESE 13 19 7 10 1009.3 1009.3 0.4
21/07:30pm 12.8 8.8 6.8 67 2.9 E 17 22 9 12 1008.9 1008.9 0.4
21/07:00pm 13.4 9.5 7.3 66 3.0 E 17 26 9 14 1008.1 1008.1 0.4
21/06:30pm 13.7 10.0 6.2 60 3.6 ESE 15 20 8 11 1007.7 1007.7 0.4
21/06:00pm 13.8 10.4 6.1 59 3.7 ESE 13 17 7 9 1007.4 1007.4 0.4
21/05:30pm 14.0 10.3 6.1 59 3.8 ESE 15 22 8 12 1007.1 1007.1 0.4
21/05:00pm 14.4 10.7 6.3 58 3.9 ESE 15 20 8 11 1006.9 1006.9 0.4
21/04:30pm 13.8 10.4 5.8 58 3.8 SE 13 20 7 11 1006.9 1006.9 0.4
21/04:00pm 13.9 9.5 6.5 61 3.6 ESE 19 24 10 13 1006.7 1006.7 0.4
21/03:30pm 13.6 10.7 6.6 62 3.4 ESE 11 17 6 9 1006.8 1006.8 0.4
21/03:00pm 13.0 9.8 6.8 66 3.0 ESE 13 20 7 11 1006.6 1006.6 0.4
21/02:30pm 12.9 9.3 6.9 67 2.9 ESE 15 19 8 10 1006.3 1006.3 0.4
21/02:00pm 12.2 9.5 9.0 81 1.6 E 13 19 7 10 1006.2 1006.2 0.4
21/01:30pm 12.3 9.6 8.9 80 1.7 S 13 24 7 13 1005.9 1005.9 0.4
21/01:00pm 12.4 9.6 8.4 76 2.0 S 13 22 7 12 1005.8 1005.8 0.2
21/12:30pm 12.5 8.4 8.7 77 1.9 S 20 32 11 17 1005.5 1005.5 0.2
21/12:00pm 12.0 7.6 8.8 81 1.6 S 22 39 12 21 1005.4 1005.4 0.2
21/11:30am 12.3 8.6 9.6 83 1.4 SSW 19 28 10 15 1005.2 1005.2 0.2
21/11:00am 12.4 8.2 9.9 85 1.3 S 22 35 12 19 1004.7 1004.7 0.2
21/10:30am 11.7 7.1 9.7 87 1.0 SSW 24 37 13 20 1004.3 1004.3 0.2
21/10:00am 12.2 9.0 9.9 86 1.2 SSW 17 28 9 15 1004.2 1004.2 0.2
21/09:30am 12.9 10.5 10.0 82 1.5 S 13 28 7 15 1003.6 1003.6 0.0
21/09:00am 13.2 10.0 9.9 80 1.7 S 17 32 9 17 1003.2 1003.2 0.4
21/08:30am 13.5 11.3 10.9 84 1.4 SSE 13 22 7 12 1002.6 1002.6 0.4
21/08:00am 13.2 11.9 11.1 87 1.1 SSE 9 17 5 9 1002.4 1002.4 0.4
21/07:30am 13.1 11.7 11.0 87 1.1 SSE 9 17 5 9 1002.1 1002.1 0.4
21/07:00am 13.3 11.1 10.8 85 1.3 ESE 13 19 7 10 1001.5 1001.5 0.4
21/06:30am 13.6 12.7 11.4 86 1.2 SSE 7 11 4 6 1001.1 1001.1 0.4
21/06:00am 13.5 11.9 11.4 87 1.1 SSE 11 15 6 8 1000.7 1000.7 0.4
21/05:30am 13.6 12.0 11.7 88 1.0 ESE 11 19 6 10 1000.3 1000.3 0.4
21/05:00am 13.7 13.2 11.9 89 1.0 ESE 6 9 3 5 1000.0 1000.0 0.4
21/04:30am 13.6 12.8 11.7 88 1.0 ESE 7 9 4 5 999.6 999.6 0.4
21/04:00am 13.6 12.4 11.7 88 1.0 E 9 9 5 5 999.5 999.5 0.4
21/03:30am 13.7 12.7 12.2 91 0.8 E 9 13 5 7 999.6 999.6 0.4
21/03:00am 13.7 12.4 12.4 92 0.7 SE 11 15 6 8 999.6 999.6 0.4
21/02:30am 13.9 14.3 12.4 91 0.8 S 2 9 1 5 999.6 999.6 0.4
21/02:00am 13.8 14.1 12.3 91 0.8 S 2 7 1 4 999.7 999.7 0.4
21/01:30am 13.6 14.3 12.3 92 0.7 CALM 0 0 0 0 999.7 999.7 0.4
21/01:00am 13.8 14.6 12.5 92 0.7 CALM 0 0 0 0 999.7 999.7 0.4
21/12:30am 13.8 13.8 12.5 92 0.7 ESE 4 9 2 5 1000.0 1000.0 0.4
21/12:00am 13.6 13.2 12.5 93 0.6 E 6 7 3 4 1000.1 1000.1 0.4
 
Date/Time
EDT
Tmp

°C
App
Tmp
°C
Dew
Point
°C
Rel
Hum
%
Delta-T

°C
Wind Press
QNH
hPa
Press
MSL
hPa
Rain
since
9 am
mm
Dir
 
Spd
km/h
Gust
km/h
Spd
kts
Gust
kts
20/11:30pm 13.9 14.7 12.4 91 0.8 CALM 0 0 0 0 1000.3 1000.3 0.4
20/11:00pm 13.9 14.7 12.4 91 0.8 CALM 0 0 0 0 1000.4 1000.4 0.4
20/10:30pm 13.9 13.9 12.4 91 0.8 E 4 6 2 3 1000.4 1000.4 0.4
20/10:00pm 13.9 13.5 12.3 90 0.9 E 6 7 3 4 1000.5 1000.5 0.4
20/09:30pm 13.9 14.6 12.3 90 0.9 CALM 0 7 0 4 1000.5 1000.5 0.4
20/09:00pm 13.9 13.9 12.4 91 0.8 NNE 4 7 2 4 1000.6 1000.6 0.4
20/08:30pm 13.8 14.1 12.3 91 0.8 ESE 2 6 1 3 1000.6 1000.6 0.4
20/08:00pm 13.8 13.1 12.1 89 0.9 ESE 7 9 4 5 1000.2 1000.2 0.4
20/07:30pm 13.8 13.2 12.3 91 0.8 E 7 9 4 5 1000.6 1000.6 0.4
20/07:00pm 14.1 13.6 12.5 90 0.9 E 7 11 4 6 1000.9 1000.9 0.4
20/06:30pm 14.2 13.8 12.4 89 1.0 E 6 7 3 4 1001.2 1001.2 0.4
20/06:00pm 13.9 12.7 11.7 86 1.2 E 9 13 5 7 1001.3 1001.3 0.2
20/05:30pm 14.1 12.4 12.5 90 0.9 ESE 13 19 7 10 1001.2 1001.2 0.2
20/05:00pm 14.3 13.1 12.7 90 0.9 ESE 11 17 6 9 1001.5 1001.5 0.2
20/04:30pm 14.8 13.1 12.4 85 1.3 E 13 17 7 9 1001.4 1001.4 0.0
20/04:00pm 15.6 14.4 11.7 77 2.1 E 9 13 5 7 1001.6 1001.6 0.0
20/03:30pm 15.9 13.8 11.3 74 2.5 E 13 15 7 8 1001.8 1001.8 0.0
20/03:00pm 17.1 15.0 11.0 67 3.3 SSW 13 19 7 10 1002.3 1002.3 0.0
20/02:30pm 16.6 13.8 11.5 72 2.8 SSW 17 26 9 14 1002.7 1002.7 0.0
20/02:00pm 16.4 13.6 11.4 72 2.7 SSE 17 26 9 14 1002.7 1002.7 0.0
20/01:30pm 16.8 14.5 10.4 66 3.4 SSE 13 20 7 11 1003.5 1003.5 0.0

Latest Capital City Observations: Canberra | Sydney | Melbourne | Brisbane | Adelaide | Perth | Hobart | Darwin

Other Formats:

Comma delimited format used in spreadsheet applications
http://www.bom.gov.au/fwo/IDT60901/IDT60901.94970.axf

JavaScript Object Notation format (JSON) in row-major order
http://www.bom.gov.au/fwo/IDT60901/IDT60901.94970.json